Terminal Aerodrome Forecast
Issued by NWS

Home | Current Version | Previous Version | Text Only | Print | Product List | Glossary On
Versions: 1 2 3 4 5 6 7 8 9 10 11 12 13 14 15 16 17 18 19 20
000
FTUS43 KAPX 280520
TAFMBL
TAF
KMBL 280520Z 2806/2906 20005KT P6SM FEW250
     FM281800 19015G28KT P6SM VCSH OVC040
     FM282000 18014G27KT P6SM -SHRA OVC030
     FM282200 17013G23KT P6SM -SHRA OVC030 WS020/19045KT
     FM290200 18011G22KT 6SM SHRA VCTS BKN030CB OVC060
      WS020/20050KT=

USA.gov is the U.S. government's official web portal to all federal, state and local government web resources and services.